createdAt,value
2022-11-23T00:07:14.175Z,89.91
2022-11-23T00:09:57.494Z,87.86
2022-11-23T00:12:46.059Z,87.47
2022-11-23T00:15:18.722Z,88.08
2022-11-23T00:24:15.944Z,90.16
2022-11-23T00:27:01.304Z,91.17
2022-11-23T00:29:54.803Z,91.96
2022-11-23T00:32:26.125Z,92.03
2022-11-23T00:35:02.065Z,92.71
2022-11-23T00:37:54.126Z,93.03
2022-11-23T00:40:37.725Z,93.32
2022-11-23T00:43:13.686Z,93.73
2022-11-23T00:45:42.978Z,93.94
2022-11-23T00:49:18.549Z,94.63
2022-11-23T00:54:16.762Z,93.78
2022-11-23T00:56:54.327Z,94.05
2022-11-23T00:59:36.162Z,94.10
2022-11-23T01:02:08.081Z,94.15
2022-11-23T01:04:35.368Z,94.41
2022-11-23T01:07:15.323Z,94.08
2022-11-23T01:10:05.940Z,94.27
2022-11-23T01:15:38.940Z,94.56
2022-11-23T01:18:16.859Z,94.99
2022-11-23T01:34:37.691Z,95.52
2022-11-23T01:37:06.716Z,95.42
2022-11-23T01:50:49.742Z,96.83
2022-11-23T02:01:52.706Z,96.83
2022-11-23T02:08:02.045Z,97.82
2022-11-23T02:13:28.978Z,96.92
2022-11-23T02:16:13.845Z,97.13
2022-11-23T02:19:31.176Z,96.74
2022-11-23T02:22:48.003Z,97.25
2022-11-23T02:26:26.887Z,97.54
2022-11-23T02:30:36.623Z,97.89
2022-11-23T02:34:44.704Z,97.47
2022-11-23T02:37:19.586Z,96.87
2022-11-23T02:39:58.267Z,96.83
2022-11-23T02:46:10.103Z,97.34
2022-11-23T02:48:40.423Z,97.30
2022-11-23T03:05:37.834Z,96.98
2022-11-23T03:08:37.817Z,96.81
2022-11-23T03:14:18.806Z,97.88
2022-11-23T03:19:57.921Z,97.94
2022-11-23T03:22:27.849Z,98.29
2022-11-23T03:25:07.606Z,98.71
2022-11-23T03:28:34.770Z,98.53
2022-11-23T03:31:26.751Z,98.28
2022-11-23T03:42:52.446Z,97.06
2022-11-23T03:59:24.742Z,97.57
2022-11-23T04:02:32.425Z,97.29
2022-11-23T04:22:21.240Z,96.64
2022-11-23T04:25:23.983Z,97.04
2022-11-23T04:28:18.761Z,96.75
2022-11-23T04:34:11.824Z,96.54
2022-11-23T04:37:12.869Z,95.95
2022-11-23T04:40:06.036Z,96.31
2022-11-23T04:43:04.328Z,96.48
2022-11-23T04:45:52.634Z,96.64
2022-11-23T04:57:10.511Z,96.17
2022-11-23T04:59:56.924Z,95.83
2022-11-23T05:02:59.801Z,96.25
2022-11-23T05:05:41.122Z,95.77
2022-11-23T05:11:37.924Z,96.48
2022-11-23T05:14:17.091Z,95.89
2022-11-23T05:16:50.484Z,96.26
2022-11-23T05:20:07.468Z,95.79
2022-11-23T05:22:19.000Z,95.37
2022-11-23T05:27:54.169Z,95.25
2022-11-23T05:30:36.480Z,95.35
2022-11-23T05:39:01.119Z,96.21
2022-11-23T05:41:38.484Z,96.42
2022-11-23T05:56:09.942Z,96.91
2022-11-23T06:01:49.781Z,96.30
2022-11-23T06:04:37.717Z,96.97
2022-11-23T06:13:31.964Z,96.82
2022-11-23T06:16:00.134Z,96.55
2022-11-23T06:18:41.541Z,96.46
2022-11-23T06:21:19.162Z,96.20
2022-11-23T07:16:47.858Z,95.04
2022-11-23T07:22:12.247Z,94.72
2022-11-23T07:38:58.246Z,95.50
2022-11-23T08:17:24.880Z,86.93
2022-11-23T08:29:57.238Z,79.87
2022-11-23T08:39:31.318Z,79.42
2022-11-23T08:41:43.441Z,77.95
2022-11-23T12:35:35.894Z,65.27
2022-11-23T12:39:36.422Z,65.07
2022-11-23T12:46:15.228Z,62.90
2022-11-23T12:56:00.642Z,64.64
2022-11-23T12:58:55.144Z,63.73
2022-11-23T13:01:39.070Z,68.14
2022-11-23T13:04:29.262Z,66.50
2022-11-23T13:16:46.941Z,59.42
2022-11-23T13:19:53.480Z,59.45
2022-11-23T13:22:26.069Z,54.66
2022-11-23T13:25:05.478Z,54.65
2022-11-23T13:48:41.385Z,51.57
2022-11-23T14:10:55.869Z,55.72
2022-11-23T14:17:19.359Z,56.05
2022-11-23T14:20:36.506Z,55.44
2022-11-23T14:36:21.727Z,55.97
2022-11-23T14:39:12.581Z,56.76
2022-11-23T14:59:50.257Z,58.17
2022-11-23T15:10:05.190Z,57.96
2022-11-23T15:12:46.525Z,57.64
2022-11-23T15:15:55.549Z,57.38
2022-11-23T15:19:27.393Z,58.36
2022-11-23T15:42:37.557Z,59.83
2022-11-23T15:51:42.769Z,62.40
2022-11-23T15:55:04.513Z,64.59
2022-11-23T15:57:37.322Z,64.76
2022-11-23T16:00:30.730Z,65.10
2022-11-23T16:03:42.275Z,66.05
2022-11-23T16:06:32.515Z,67.54
2022-11-23T16:08:59.455Z,64.18
2022-11-23T16:11:35.312Z,64.49
2022-11-23T16:14:31.779Z,63.20
2022-11-23T16:17:23.698Z,62.15
2022-11-23T16:19:57.539Z,62.02
2022-11-23T16:22:31.681Z,60.37
2022-11-23T16:25:31.830Z,58.76
2022-11-23T16:28:00.824Z,58.81
2022-11-23T16:30:36.418Z,59.45
2022-11-23T16:33:04.093Z,59.75
2022-11-23T16:35:31.895Z,60.56
2022-11-23T16:37:58.567Z,60.94
2022-11-23T16:40:27.988Z,61.98
2022-11-23T16:42:55.431Z,63.03
2022-11-23T16:45:22.618Z,65.42
2022-11-23T16:47:55.191Z,68.23
2022-11-23T16:50:23.343Z,69.41
2022-11-23T16:52:50.459Z,70.28
2022-11-23T16:55:17.673Z,70.78
2022-11-23T16:57:45.195Z,71.05
2022-11-23T17:00:17.467Z,71.10
2022-11-23T17:02:48.071Z,72.21
2022-11-23T17:05:19.319Z,70.92
2022-11-23T17:07:59.279Z,71.04
2022-11-23T17:10:29.003Z,71.85
2022-11-23T17:18:17.916Z,68.44
2022-11-23T17:20:45.567Z,69.71
2022-11-23T17:25:54.012Z,67.09
2022-11-23T17:28:21.420Z,66.41
2022-11-23T17:30:49.259Z,66.73
2022-11-23T17:33:18.832Z,65.93
2022-11-23T17:35:50.109Z,64.82
2022-11-23T17:38:21.528Z,64.90
2022-11-23T17:40:48.303Z,67.70
2022-11-23T17:43:15.989Z,68.83
2022-11-23T17:45:44.810Z,69.14
2022-11-23T17:48:12.915Z,68.89
2022-11-23T17:50:41.148Z,67.85
2022-11-23T17:53:10.366Z,67.64
2022-11-23T17:55:37.806Z,69.06
2022-11-23T17:58:05.599Z,70.33
2022-11-23T18:00:37.302Z,70.90
2022-11-23T18:03:04.472Z,71.44
2022-11-23T18:08:09.694Z,72.86
2022-11-23T18:10:38.781Z,72.70
2022-11-23T18:15:42.090Z,73.20
2022-11-23T18:23:49.959Z,74.64
2022-11-23T18:26:24.439Z,72.19
2022-11-23T18:28:56.029Z,72.31
2022-11-23T18:34:14.298Z,73.26
2022-11-23T18:36:41.123Z,73.86
2022-11-23T18:39:08.249Z,74.16
2022-11-23T18:41:39.275Z,74.65
2022-11-23T18:44:06.649Z,75.17
2022-11-23T18:46:36.172Z,75.16
2022-11-23T18:49:03.429Z,75.82
2022-11-23T18:51:33.562Z,75.87
2022-11-23T18:54:01.267Z,76.14
2022-11-23T18:56:28.400Z,75.68
2022-11-23T18:58:58.049Z,75.84
2022-11-23T19:04:33.043Z,76.58
2022-11-23T19:07:03.149Z,77.25
2022-11-23T19:13:00.965Z,76.82
2022-11-23T19:15:34.851Z,76.54
2022-11-23T19:18:02.524Z,76.49
2022-11-23T19:20:29.959Z,76.53
2022-11-23T19:23:00.025Z,73.98
2022-11-23T19:25:27.309Z,73.83
2022-11-23T19:30:43.744Z,73.07
2022-11-23T19:33:32.515Z,73.07
2022-11-23T19:41:36.582Z,74.35
2022-11-23T19:46:39.832Z,75.16
2022-11-23T19:51:59.923Z,74.27
2022-11-23T20:00:05.958Z,74.43
2022-11-23T20:02:33.368Z,75.28
2022-11-23T20:05:01.082Z,76.11
2022-11-23T20:07:32.588Z,76.32
2022-11-23T20:10:09.386Z,75.65
2022-11-23T20:15:19.972Z,74.68
2022-11-23T20:17:54.271Z,75.71
2022-11-23T20:20:21.641Z,75.97
2022-11-23T20:22:50.304Z,76.28
2022-11-23T20:25:25.134Z,76.62
2022-11-23T20:30:50.717Z,76.74
2022-11-23T20:33:35.861Z,76.70
2022-11-23T20:36:17.427Z,74.61
2022-11-23T20:38:48.908Z,73.83
2022-11-23T20:41:22.120Z,74.81
2022-11-23T20:43:53.310Z,75.72
2022-11-23T20:54:40.354Z,76.85
2022-11-23T20:57:38.002Z,76.87
2022-11-23T21:00:03.498Z,76.73
2022-11-23T21:16:30.562Z,75.53
2022-11-23T21:19:07.862Z,76.41
2022-11-23T21:24:26.252Z,76.04
2022-11-23T21:26:53.673Z,75.99
2022-11-23T21:29:21.186Z,77.21
2022-11-23T21:31:49.326Z,78.67
2022-11-23T21:34:27.481Z,78.38
2022-11-23T21:36:55.983Z,77.96
2022-11-23T21:39:23.828Z,76.94
2022-11-23T21:41:52.307Z,76.98
2022-11-23T21:44:19.981Z,77.95
2022-11-23T21:46:47.119Z,78.10
2022-11-23T21:49:14.428Z,78.08
2022-11-23T21:51:41.656Z,78.62
2022-11-23T21:54:09.247Z,78.23
2022-11-23T21:56:36.369Z,78.18
2022-11-23T21:59:03.099Z,77.44
2022-11-23T22:01:34.671Z,77.54
2022-11-23T22:04:02.838Z,78.70
2022-11-23T22:06:30.027Z,80.13
2022-11-23T22:08:58.298Z,80.98
2022-11-23T22:11:31.314Z,80.87
2022-11-23T22:14:03.002Z,81.29
2022-11-23T22:16:38.108Z,81.92
2022-11-23T22:19:06.084Z,81.26
2022-11-23T22:21:36.072Z,81.26
2022-11-23T22:24:04.334Z,82.05
2022-11-23T22:26:31.684Z,82.24
2022-11-23T22:28:58.649Z,82.32
2022-11-23T22:31:26.229Z,82.16
2022-11-23T22:33:53.650Z,82.41
2022-11-23T22:36:24.278Z,82.62
2022-11-23T22:39:01.549Z,82.15
2022-11-23T22:41:30.769Z,82.09
2022-11-23T22:43:57.604Z,82.62
2022-11-23T22:46:25.780Z,82.15
2022-11-23T22:48:53.193Z,82.23
2022-11-23T22:51:23.816Z,82.41
2022-11-23T22:53:58.090Z,81.75
2022-11-23T22:56:25.981Z,81.89
2022-11-23T22:58:53.098Z,84.04
2022-11-23T23:01:22.443Z,83.31
2022-11-23T23:03:53.336Z,83.21
2022-11-23T23:06:22.674Z,83.29
2022-11-23T23:08:54.053Z,83.01
2022-11-23T23:11:20.790Z,82.50
2022-11-23T23:13:47.827Z,82.88
2022-11-23T23:16:14.939Z,82.79
2022-11-23T23:18:43.072Z,82.30
2022-11-23T23:21:14.999Z,81.79
2022-11-23T23:23:44.728Z,81.79
2022-11-23T23:26:13.044Z,81.94
2022-11-23T23:28:40.577Z,82.09
2022-11-23T23:31:10.355Z,82.13
2022-11-23T23:33:37.460Z,81.96
2022-11-23T23:36:15.859Z,81.06
2022-11-23T23:38:43.221Z,81.44
2022-11-23T23:41:11.701Z,81.65
2022-11-23T23:46:33.721Z,82.13
2022-11-23T23:49:00.554Z,82.45
2022-11-23T23:51:27.289Z,82.12
2022-11-23T23:53:54.269Z,81.77
2022-11-23T23:56:24.018Z,82.34
2022-11-23T23:58:51.217Z,82.55
